sensor_id;sensor_type;location;lat;lon;timestamp;P1;durP1;ratioP1;P2;durP2;ratioP2
58272;SDS011;44075;42.436;18.514;2022-07-29T00:00:21;8.93;;;6.15;;
58272;SDS011;44075;42.436;18.514;2022-07-29T00:02:50;10.27;;;6.80;;
58272;SDS011;44075;42.436;18.514;2022-07-29T00:05:16;8.20;;;6.10;;
58272;SDS011;44075;42.436;18.514;2022-07-29T00:07:42;8.95;;;6.20;;
58272;SDS011;44075;42.436;18.514;2022-07-29T00:10:08;9.43;;;6.55;;
58272;SDS011;44075;42.436;18.514;2022-07-29T00:12:34;8.93;;;6.40;;
58272;SDS011;44075;42.436;18.514;2022-07-29T00:15:00;9.43;;;6.95;;
58272;SDS011;44075;42.436;18.514;2022-07-29T00:17:26;8.70;;;6.65;;
58272;SDS011;44075;42.436;18.514;2022-07-29T00:19:56;8.55;;;6.25;;
58272;SDS011;44075;42.436;18.514;2022-07-29T00:22:22;8.50;;;6.50;;
58272;SDS011;44075;42.436;18.514;2022-07-29T00:24:54;8.32;;;5.97;;
58272;SDS011;44075;42.436;18.514;2022-07-29T00:27:20;8.18;;;6.13;;
58272;SDS011;44075;42.436;18.514;2022-07-29T00:29:47;9.63;;;5.55;;
58272;SDS011;44075;42.436;18.514;2022-07-29T00:32:13;8.10;;;6.20;;
58272;SDS011;44075;42.436;18.514;2022-07-29T00:34:39;8.25;;;6.28;;
58272;SDS011;44075;42.436;18.514;2022-07-29T00:37:24;9.57;;;7.38;;
58272;SDS011;44075;42.436;18.514;2022-07-29T00:39:50;9.80;;;6.28;;
58272;SDS011;44075;42.436;18.514;2022-07-29T00:42:16;9.02;;;6.68;;
58272;SDS011;44075;42.436;18.514;2022-07-29T00:44:43;9.63;;;6.30;;
58272;SDS011;44075;42.436;18.514;2022-07-29T00:47:09;8.98;;;6.72;;
58272;SDS011;44075;42.436;18.514;2022-07-29T00:49:36;8.55;;;7.00;;
58272;SDS011;44075;42.436;18.514;2022-07-29T00:52:07;8.70;;;6.90;;
58272;SDS011;44075;42.436;18.514;2022-07-29T00:54:34;10.77;;;6.32;;
58272;SDS011;44075;42.436;18.514;2022-07-29T00:57:00;8.32;;;6.45;;
58272;SDS011;44075;42.436;18.514;2022-07-29T00:59:29;8.07;;;6.00;;
58272;SDS011;44075;42.436;18.514;2022-07-29T01:01:58;8.77;;;6.57;;
58272;SDS011;44075;42.436;18.514;2022-07-29T01:04:24;8.63;;;6.40;;
58272;SDS011;44075;42.436;18.514;2022-07-29T01:06:50;9.18;;;6.10;;
58272;SDS011;44075;42.436;18.514;2022-07-29T01:09:17;9.45;;;6.25;;
58272;SDS011;44075;42.436;18.514;2022-07-29T01:11:44;8.35;;;6.32;;
58272;SDS011;44075;42.436;18.514;2022-07-29T01:14:12;9.98;;;6.63;;
58272;SDS011;44075;42.436;18.514;2022-07-29T01:16:42;9.15;;;6.65;;
58272;SDS011;44075;42.436;18.514;2022-07-29T01:19:13;9.77;;;6.80;;
58272;SDS011;44075;42.436;18.514;2022-07-29T01:21:46;10.15;;;6.53;;
58272;SDS011;44075;42.436;18.514;2022-07-29T01:29:57;8.23;;;6.22;;
58272;SDS011;44075;42.436;18.514;2022-07-29T01:32:27;8.60;;;6.53;;
58272;SDS011;44075;42.436;18.514;2022-07-29T01:35:03;8.80;;;6.20;;
58272;SDS011;44075;42.436;18.514;2022-07-29T01:37:37;8.77;;;6.50;;
58272;SDS011;44075;42.436;18.514;2022-07-29T01:40:05;9.32;;;6.68;;
58272;SDS011;44075;42.436;18.514;2022-07-29T01:42:43;8.80;;;6.70;;
58272;SDS011;44075;42.436;18.514;2022-07-29T01:45:16;9.38;;;6.93;;
58272;SDS011;44075;42.436;18.514;2022-07-29T01:47:54;9.07;;;6.88;;
58272;SDS011;44075;42.436;18.514;2022-07-29T01:50:23;8.95;;;6.40;;
58272;SDS011;44075;42.436;18.514;2022-07-29T01:52:54;9.27;;;5.95;;
58272;SDS011;44075;42.436;18.514;2022-07-29T01:55:22;9.10;;;6.63;;
58272;SDS011;44075;42.436;18.514;2022-07-29T01:57:50;9.20;;;6.47;;
58272;SDS011;44075;42.436;18.514;2022-07-29T02:00:17;9.10;;;6.72;;
58272;SDS011;44075;42.436;18.514;2022-07-29T02:02:44;9.23;;;6.30;;
58272;SDS011;44075;42.436;18.514;2022-07-29T02:05:12;8.50;;;6.25;;
58272;SDS011;44075;42.436;18.514;2022-07-29T02:07:43;8.38;;;6.25;;
58272;SDS011;44075;42.436;18.514;2022-07-29T02:10:10;8.18;;;5.90;;
58272;SDS011;44075;42.436;18.514;2022-07-29T02:12:37;8.25;;;6.07;;
58272;SDS011;44075;42.436;18.514;2022-07-29T02:15:04;10.57;;;6.75;;
58272;SDS011;44075;42.436;18.514;2022-07-29T02:17:37;9.27;;;6.25;;
58272;SDS011;44075;42.436;18.514;2022-07-29T02:20:04;9.05;;;6.65;;
58272;SDS011;44075;42.436;18.514;2022-07-29T02:22:31;8.50;;;6.45;;
58272;SDS011;44075;42.436;18.514;2022-07-29T02:24:59;9.73;;;7.40;;
58272;SDS011;44075;42.436;18.514;2022-07-29T02:27:26;9.30;;;7.00;;
58272;SDS011;44075;42.436;18.514;2022-07-29T02:29:54;9.55;;;6.90;;
58272;SDS011;44075;42.436;18.514;2022-07-29T02:32:21;10.52;;;7.63;;
58272;SDS011;44075;42.436;18.514;2022-07-29T02:34:48;8.90;;;6.75;;
58272;SDS011;44075;42.436;18.514;2022-07-29T02:37:24;9.60;;;7.57;;
58272;SDS011;44075;42.436;18.514;2022-07-29T02:39:51;9.32;;;6.90;;
58272;SDS011;44075;42.436;18.514;2022-07-29T02:42:18;9.30;;;7.10;;
58272;SDS011;44075;42.436;18.514;2022-07-29T02:44:44;9.40;;;7.00;;
58272;SDS011;44075;42.436;18.514;2022-07-29T02:47:24;10.45;;;7.25;;
58272;SDS011;44075;42.436;18.514;2022-07-29T02:52:31;9.02;;;6.28;;
58272;SDS011;44075;42.436;18.514;2022-07-29T02:57:46;9.30;;;6.50;;
58272;SDS011;44075;42.436;18.514;2022-07-29T03:00:12;8.82;;;6.20;;
58272;SDS011;44075;42.436;18.514;2022-07-29T03:02:40;9.70;;;6.03;;
58272;SDS011;44075;42.436;18.514;2022-07-29T03:05:09;9.23;;;6.20;;
58272;SDS011;44075;42.436;18.514;2022-07-29T03:07:36;9.05;;;6.60;;
58272;SDS011;44075;42.436;18.514;2022-07-29T03:10:03;8.68;;;6.60;;
58272;SDS011;44075;42.436;18.514;2022-07-29T03:12:30;11.43;;;6.95;;
58272;SDS011;44075;42.436;18.514;2022-07-29T03:14:56;9.52;;;7.20;;
58272;SDS011;44075;42.436;18.514;2022-07-29T03:17:23;8.77;;;6.82;;
58272;SDS011;44075;42.436;18.514;2022-07-29T03:19:49;8.60;;;6.50;;
58272;SDS011;44075;42.436;18.514;2022-07-29T03:22:15;9.00;;;6.07;;
58272;SDS011;44075;42.436;18.514;2022-07-29T03:24:48;9.50;;;6.88;;
58272;SDS011;44075;42.436;18.514;2022-07-29T03:27:15;9.13;;;6.28;;
58272;SDS011;44075;42.436;18.514;2022-07-29T03:29:41;9.32;;;6.70;;
58272;SDS011;44075;42.436;18.514;2022-07-29T03:32:08;9.05;;;5.80;;
58272;SDS011;44075;42.436;18.514;2022-07-29T03:34:34;8.98;;;6.40;;
58272;SDS011;44075;42.436;18.514;2022-07-29T03:37:06;9.25;;;6.10;;
58272;SDS011;44075;42.436;18.514;2022-07-29T03:39:34;8.07;;;6.10;;
58272;SDS011;44075;42.436;18.514;2022-07-29T03:42:03;8.55;;;6.07;;
58272;SDS011;44075;42.436;18.514;2022-07-29T03:44:31;7.97;;;5.97;;
58272;SDS011;44075;42.436;18.514;2022-07-29T03:46:57;8.60;;;6.30;;
58272;SDS011;44075;42.436;18.514;2022-07-29T03:49:26;9.52;;;6.18;;
58272;SDS011;44075;42.436;18.514;2022-07-29T03:51:53;9.15;;;6.43;;
58272;SDS011;44075;42.436;18.514;2022-07-29T03:54:20;9.90;;;6.68;;
58272;SDS011;44075;42.436;18.514;2022-07-29T03:56:49;8.77;;;6.45;;
58272;SDS011;44075;42.436;18.514;2022-07-29T03:59:17;8.07;;;6.05;;
58272;SDS011;44075;42.436;18.514;2022-07-29T04:01:44;8.60;;;6.22;;
58272;SDS011;44075;42.436;18.514;2022-07-29T04:04:11;9.85;;;6.95;;
58272;SDS011;44075;42.436;18.514;2022-07-29T04:06:41;8.10;;;6.20;;
58272;SDS011;44075;42.436;18.514;2022-07-29T04:09:07;9.43;;;6.50;;
58272;SDS011;44075;42.436;18.514;2022-07-29T04:11:33;8.00;;;6.07;;
58272;SDS011;44075;42.436;18.514;2022-07-29T04:14:03;9.07;;;6.57;;
58272;SDS011;44075;42.436;18.514;2022-07-29T04:16:29;8.40;;;6.00;;
58272;SDS011;44075;42.436;18.514;2022-07-29T04:18:55;8.52;;;6.60;;
58272;SDS011;44075;42.436;18.514;2022-07-29T04:21:21;8.48;;;6.15;;
58272;SDS011;44075;42.436;18.514;2022-07-29T04:23:47;9.00;;;6.00;;
58272;SDS011;44075;42.436;18.514;2022-07-29T04:26:17;9.73;;;6.80;;
58272;SDS011;44075;42.436;18.514;2022-07-29T04:28:43;9.80;;;6.85;;
58272;SDS011;44075;42.436;18.514;2022-07-29T04:31:09;9.68;;;6.75;;
58272;SDS011;44075;42.436;18.514;2022-07-29T04:33:36;9.40;;;6.63;;
58272;SDS011;44075;42.436;18.514;2022-07-29T04:36:02;9.48;;;7.13;;
58272;SDS011;44075;42.436;18.514;2022-07-29T04:38:28;9.20;;;6.80;;
58272;SDS011;44075;42.436;18.514;2022-07-29T04:40:54;9.95;;;7.20;;
58272;SDS011;44075;42.436;18.514;2022-07-29T04:43:20;9.25;;;6.75;;
58272;SDS011;44075;42.436;18.514;2022-07-29T04:45:46;8.57;;;6.43;;
58272;SDS011;44075;42.436;18.514;2022-07-29T04:48:12;8.63;;;6.85;;
58272;SDS011;44075;42.436;18.514;2022-07-29T04:50:38;9.35;;;6.78;;
58272;SDS011;44075;42.436;18.514;2022-07-29T04:53:05;10.48;;;6.78;;
58272;SDS011;44075;42.436;18.514;2022-07-29T04:55:31;8.32;;;6.57;;
58272;SDS011;44075;42.436;18.514;2022-07-29T04:57:57;9.13;;;7.15;;
58272;SDS011;44075;42.436;18.514;2022-07-29T05:00:23;9.45;;;6.97;;
58272;SDS011;44075;42.436;18.514;2022-07-29T05:02:49;10.02;;;7.15;;
58272;SDS011;44075;42.436;18.514;2022-07-29T05:05:15;9.85;;;7.43;;
58272;SDS011;44075;42.436;18.514;2022-07-29T05:07:42;9.90;;;7.10;;
58272;SDS011;44075;42.436;18.514;2022-07-29T05:10:14;9.15;;;7.15;;
58272;SDS011;44075;42.436;18.514;2022-07-29T05:12:40;9.50;;;7.15;;
58272;SDS011;44075;42.436;18.514;2022-07-29T05:15:06;9.55;;;7.53;;
58272;SDS011;44075;42.436;18.514;2022-07-29T05:17:32;12.32;;;6.97;;
58272;SDS011;44075;42.436;18.514;2022-07-29T05:19:58;10.07;;;7.72;;
58272;SDS011;44075;42.436;18.514;2022-07-29T05:22:24;12.32;;;7.43;;
58272;SDS011;44075;42.436;18.514;2022-07-29T05:25:03;11.63;;;7.00;;
58272;SDS011;44075;42.436;18.514;2022-07-29T05:27:29;9.85;;;7.88;;
58272;SDS011;44075;42.436;18.514;2022-07-29T05:29:58;9.30;;;7.53;;
58272;SDS011;44075;42.436;18.514;2022-07-29T05:32:24;8.93;;;7.32;;
58272;SDS011;44075;42.436;18.514;2022-07-29T05:34:53;10.02;;;7.30;;
58272;SDS011;44075;42.436;18.514;2022-07-29T05:37:19;10.48;;;7.57;;
58272;SDS011;44075;42.436;18.514;2022-07-29T05:42:16;10.60;;;7.57;;
58272;SDS011;44075;42.436;18.514;2022-07-29T05:44:42;9.93;;;7.40;;
58272;SDS011;44075;42.436;18.514;2022-07-29T05:47:12;10.77;;;7.55;;
58272;SDS011;44075;42.436;18.514;2022-07-29T05:49:38;12.40;;;7.93;;
58272;SDS011;44075;42.436;18.514;2022-07-29T05:52:04;9.30;;;7.57;;
58272;SDS011;44075;42.436;18.514;2022-07-29T05:54:30;10.82;;;7.90;;
58272;SDS011;44075;42.436;18.514;2022-07-29T05:56:56;9.95;;;7.90;;
58272;SDS011;44075;42.436;18.514;2022-07-29T05:59:23;9.25;;;7.60;;
58272;SDS011;44075;42.436;18.514;2022-07-29T06:01:49;10.18;;;8.07;;
58272;SDS011;44075;42.436;18.514;2022-07-29T06:04:15;9.43;;;7.63;;
58272;SDS011;44075;42.436;18.514;2022-07-29T06:06:41;9.65;;;7.70;;
58272;SDS011;44075;42.436;18.514;2022-07-29T06:09:07;10.85;;;8.43;;
58272;SDS011;44075;42.436;18.514;2022-07-29T06:11:33;9.98;;;7.82;;
58272;SDS011;44075;42.436;18.514;2022-07-29T06:14:02;10.00;;;8.80;;
58272;SDS011;44075;42.436;18.514;2022-07-29T06:16:28;9.00;;;7.10;;
58272;SDS011;44075;42.436;18.514;2022-07-29T06:18:54;9.65;;;8.18;;
58272;SDS011;44075;42.436;18.514;2022-07-29T06:21:20;9.90;;;7.85;;
58272;SDS011;44075;42.436;18.514;2022-07-29T06:23:46;10.30;;;7.45;;
58272;SDS011;44075;42.436;18.514;2022-07-29T06:26:12;9.05;;;7.57;;
58272;SDS011;44075;42.436;18.514;2022-07-29T06:28:39;9.82;;;7.45;;
58272;SDS011;44075;42.436;18.514;2022-07-29T06:31:05;10.02;;;7.30;;
58272;SDS011;44075;42.436;18.514;2022-07-29T06:33:31;11.20;;;7.43;;
58272;SDS011;44075;42.436;18.514;2022-07-29T06:35:58;9.23;;;7.47;;
58272;SDS011;44075;42.436;18.514;2022-07-29T06:38:24;10.98;;;8.50;;
58272;SDS011;44075;42.436;18.514;2022-07-29T06:40:50;10.75;;;7.43;;
58272;SDS011;44075;42.436;18.514;2022-07-29T06:43:47;9.98;;;7.50;;
58272;SDS011;44075;42.436;18.514;2022-07-29T06:46:13;9.25;;;7.63;;
58272;SDS011;44075;42.436;18.514;2022-07-29T06:48:40;8.60;;;7.43;;
58272;SDS011;44075;42.436;18.514;2022-07-29T06:51:07;9.13;;;6.97;;
58272;SDS011;44075;42.436;18.514;2022-07-29T06:53:34;8.57;;;7.55;;
58272;SDS011;44075;42.436;18.514;2022-07-29T06:56:00;8.23;;;7.32;;
58272;SDS011;44075;42.436;18.514;2022-07-29T06:58:27;8.48;;;6.75;;
58272;SDS011;44075;42.436;18.514;2022-07-29T07:00:54;9.23;;;7.00;;
58272;SDS011;44075;42.436;18.514;2022-07-29T07:03:20;9.77;;;6.95;;
58272;SDS011;44075;42.436;18.514;2022-07-29T07:05:47;9.50;;;6.97;;
58272;SDS011;44075;42.436;18.514;2022-07-29T07:08:13;10.48;;;6.97;;
58272;SDS011;44075;42.436;18.514;2022-07-29T07:10:41;9.77;;;7.13;;
58272;SDS011;44075;42.436;18.514;2022-07-29T07:13:07;9.40;;;7.20;;
58272;SDS011;44075;42.436;18.514;2022-07-29T07:15:34;8.45;;;6.90;;
58272;SDS011;44075;42.436;18.514;2022-07-29T07:18:01;8.23;;;6.82;;
58272;SDS011;44075;42.436;18.514;2022-07-29T07:20:27;9.57;;;6.93;;
58272;SDS011;44075;42.436;18.514;2022-07-29T07:22:53;9.55;;;7.90;;
58272;SDS011;44075;42.436;18.514;2022-07-29T07:25:20;8.63;;;6.95;;
58272;SDS011;44075;42.436;18.514;2022-07-29T07:27:46;10.23;;;7.05;;
58272;SDS011;44075;42.436;18.514;2022-07-29T07:30:12;8.75;;;7.68;;
58272;SDS011;44075;42.436;18.514;2022-07-29T07:32:38;9.48;;;8.40;;
58272;SDS011;44075;42.436;18.514;2022-07-29T07:35:06;9.13;;;7.53;;
58272;SDS011;44075;42.436;18.514;2022-07-29T07:37:32;8.80;;;7.72;;
58272;SDS011;44075;42.436;18.514;2022-07-29T07:39:59;8.95;;;7.40;;
58272;SDS011;44075;42.436;18.514;2022-07-29T07:42:26;10.05;;;7.35;;
58272;SDS011;44075;42.436;18.514;2022-07-29T07:44:52;9.48;;;8.05;;
58272;SDS011;44075;42.436;18.514;2022-07-29T07:47:18;11.18;;;8.25;;
58272;SDS011;44075;42.436;18.514;2022-07-29T07:49:48;10.23;;;7.70;;
58272;SDS011;44075;42.436;18.514;2022-07-29T07:52:15;9.93;;;7.30;;
58272;SDS011;44075;42.436;18.514;2022-07-29T07:54:42;9.70;;;7.38;;
58272;SDS011;44075;42.436;18.514;2022-07-29T07:57:09;9.30;;;7.30;;
58272;SDS011;44075;42.436;18.514;2022-07-29T07:59:35;10.57;;;7.45;;
58272;SDS011;44075;42.436;18.514;2022-07-29T08:02:01;10.38;;;8.07;;
58272;SDS011;44075;42.436;18.514;2022-07-29T08:04:27;9.88;;;7.65;;
58272;SDS011;44075;42.436;18.514;2022-07-29T08:06:53;10.32;;;7.13;;
58272;SDS011;44075;42.436;18.514;2022-07-29T08:09:20;9.73;;;7.00;;
58272;SDS011;44075;42.436;18.514;2022-07-29T08:11:46;9.57;;;7.10;;
58272;SDS011;44075;42.436;18.514;2022-07-29T08:14:12;10.10;;;7.80;;
58272;SDS011;44075;42.436;18.514;2022-07-29T08:16:39;10.38;;;7.57;;
58272;SDS011;44075;42.436;18.514;2022-07-29T08:19:05;9.15;;;6.65;;
58272;SDS011;44075;42.436;18.514;2022-07-29T08:21:31;9.43;;;7.35;;
58272;SDS011;44075;42.436;18.514;2022-07-29T08:24:01;9.90;;;8.80;;
58272;SDS011;44075;42.436;18.514;2022-07-29T08:26:46;11.38;;;7.75;;
58272;SDS011;44075;42.436;18.514;2022-07-29T08:29:12;9.60;;;7.30;;
58272;SDS011;44075;42.436;18.514;2022-07-29T08:31:39;9.95;;;7.40;;
58272;SDS011;44075;42.436;18.514;2022-07-29T08:34:08;10.68;;;7.93;;
58272;SDS011;44075;42.436;18.514;2022-07-29T08:36:34;11.25;;;7.30;;
58272;SDS011;44075;42.436;18.514;2022-07-29T08:39:01;14.73;;;7.53;;
58272;SDS011;44075;42.436;18.514;2022-07-29T08:41:27;9.13;;;6.85;;
58272;SDS011;44075;42.436;18.514;2022-07-29T08:43:53;11.15;;;7.80;;
58272;SDS011;44075;42.436;18.514;2022-07-29T08:46:20;12.48;;;7.32;;
58272;SDS011;44075;42.436;18.514;2022-07-29T08:48:49;9.45;;;7.28;;
58272;SDS011;44075;42.436;18.514;2022-07-29T08:51:17;9.18;;;6.70;;
58272;SDS011;44075;42.436;18.514;2022-07-29T08:53:43;15.52;;;9.00;;
58272;SDS011;44075;42.436;18.514;2022-07-29T08:56:14;41.42;;;9.75;;
58272;SDS011;44075;42.436;18.514;2022-07-29T08:58:46;16.17;;;8.63;;
58272;SDS011;44075;42.436;18.514;2022-07-29T09:01:23;9.68;;;7.53;;
58272;SDS011;44075;42.436;18.514;2022-07-29T09:03:49;11.88;;;7.60;;
58272;SDS011;44075;42.436;18.514;2022-07-29T09:06:17;9.05;;;6.50;;
58272;SDS011;44075;42.436;18.514;2022-07-29T09:08:56;7.97;;;6.90;;
58272;SDS011;44075;42.436;18.514;2022-07-29T09:11:24;9.27;;;6.60;;
58272;SDS011;44075;42.436;18.514;2022-07-29T09:13:53;10.30;;;6.80;;
58272;SDS011;44075;42.436;18.514;2022-07-29T09:16:19;10.10;;;6.93;;
58272;SDS011;44075;42.436;18.514;2022-07-29T09:18:45;9.43;;;7.20;;
58272;SDS011;44075;42.436;18.514;2022-07-29T09:21:13;9.52;;;6.72;;
58272;SDS011;44075;42.436;18.514;2022-07-29T09:24:11;9.80;;;7.10;;
58272;SDS011;44075;42.436;18.514;2022-07-29T09:26:41;9.48;;;7.93;;
58272;SDS011;44075;42.436;18.514;2022-07-29T09:31:41;9.88;;;8.00;;
58272;SDS011;44075;42.436;18.514;2022-07-29T09:34:14;10.70;;;7.40;;
58272;SDS011;44075;42.436;18.514;2022-07-29T09:36:44;9.48;;;7.30;;
58272;SDS011;44075;42.436;18.514;2022-07-29T09:39:11;10.43;;;7.30;;
58272;SDS011;44075;42.436;18.514;2022-07-29T09:41:46;8.75;;;7.85;;
58272;SDS011;44075;42.436;18.514;2022-07-29T09:44:13;9.27;;;7.35;;
58272;SDS011;44075;42.436;18.514;2022-07-29T09:46:40;9.02;;;7.43;;
58272;SDS011;44075;42.436;18.514;2022-07-29T09:51:34;8.25;;;7.35;;
58272;SDS011;44075;42.436;18.514;2022-07-29T09:54:00;12.77;;;7.68;;
58272;SDS011;44075;42.436;18.514;2022-07-29T09:56:42;9.52;;;7.63;;
58272;SDS011;44075;42.436;18.514;2022-07-29T09:59:09;8.93;;;7.65;;
58272;SDS011;44075;42.436;18.514;2022-07-29T10:01:36;8.70;;;7.30;;
58272;SDS011;44075;42.436;18.514;2022-07-29T10:04:03;9.82;;;7.20;;
58272;SDS011;44075;42.436;18.514;2022-07-29T10:06:29;9.82;;;7.28;;
58272;SDS011;44075;42.436;18.514;2022-07-29T10:09:02;10.23;;;8.02;;
58272;SDS011;44075;42.436;18.514;2022-07-29T10:11:33;8.18;;;7.03;;
58272;SDS011;44075;42.436;18.514;2022-07-29T10:13:59;8.25;;;7.20;;
58272;SDS011;44075;42.436;18.514;2022-07-29T10:16:27;8.95;;;6.72;;
58272;SDS011;44075;42.436;18.514;2022-07-29T10:18:57;10.00;;;7.13;;
58272;SDS011;44075;42.436;18.514;2022-07-29T10:21:24;8.93;;;7.20;;
58272;SDS011;44075;42.436;18.514;2022-07-29T10:23:52;8.30;;;6.75;;
58272;SDS011;44075;42.436;18.514;2022-07-29T10:26:19;9.25;;;7.15;;
58272;SDS011;44075;42.436;18.514;2022-07-29T10:28:45;9.23;;;7.30;;
58272;SDS011;44075;42.436;18.514;2022-07-29T10:31:15;8.85;;;6.45;;
58272;SDS011;44075;42.436;18.514;2022-07-29T10:33:52;8.77;;;6.93;;
58272;SDS011;44075;42.436;18.514;2022-07-29T10:44:43;10.68;;;6.85;;
58272;SDS011;44075;42.436;18.514;2022-07-29T10:47:28;8.40;;;6.93;;
58272;SDS011;44075;42.436;18.514;2022-07-29T10:49:55;8.40;;;7.00;;
58272;SDS011;44075;42.436;18.514;2022-07-29T10:52:22;8.50;;;6.75;;
58272;SDS011;44075;42.436;18.514;2022-07-29T10:54:52;8.18;;;6.35;;
58272;SDS011;44075;42.436;18.514;2022-07-29T10:57:26;9.05;;;7.13;;
58272;SDS011;44075;42.436;18.514;2022-07-29T11:07:26;8.55;;;6.97;;
58272;SDS011;44075;42.436;18.514;2022-07-29T11:15:05;8.65;;;6.60;;
58272;SDS011;44075;42.436;18.514;2022-07-29T11:23:01;9.65;;;6.60;;
58272;SDS011;44075;42.436;18.514;2022-07-29T11:25:42;9.30;;;6.72;;
58272;SDS011;44075;42.436;18.514;2022-07-29T11:28:10;9.85;;;7.22;;
58272;SDS011;44075;42.436;18.514;2022-07-29T11:30:46;8.48;;;6.05;;
58272;SDS011;44075;42.436;18.514;2022-07-29T11:38:33;9.38;;;7.47;;
58272;SDS011;44075;42.436;18.514;2022-07-29T11:46:10;8.95;;;7.60;;
58272;SDS011;44075;42.436;18.514;2022-07-29T11:48:36;10.70;;;7.53;;
58272;SDS011;44075;42.436;18.514;2022-07-29T11:51:09;8.45;;;7.55;;
58272;SDS011;44075;42.436;18.514;2022-07-29T11:53:36;9.77;;;7.10;;
58272;SDS011;44075;42.436;18.514;2022-07-29T11:56:02;8.40;;;7.00;;
58272;SDS011;44075;42.436;18.514;2022-07-29T11:58:30;10.00;;;7.13;;
58272;SDS011;44075;42.436;18.514;2022-07-29T12:00:56;9.10;;;7.85;;
58272;SDS011;44075;42.436;18.514;2022-07-29T12:03:31;8.80;;;7.15;;
58272;SDS011;44075;42.436;18.514;2022-07-29T12:06:10;8.20;;;7.35;;
58272;SDS011;44075;42.436;18.514;2022-07-29T12:08:40;9.52;;;7.03;;
58272;SDS011;44075;42.436;18.514;2022-07-29T12:11:14;11.23;;;7.72;;
58272;SDS011;44075;42.436;18.514;2022-07-29T12:13:40;8.48;;;7.18;;
58272;SDS011;44075;42.436;18.514;2022-07-29T12:16:06;9.35;;;7.43;;
58272;SDS011;44075;42.436;18.514;2022-07-29T12:18:32;9.00;;;6.95;;
58272;SDS011;44075;42.436;18.514;2022-07-29T12:20:59;7.95;;;7.15;;
58272;SDS011;44075;42.436;18.514;2022-07-29T12:23:28;8.32;;;7.07;;
58272;SDS011;44075;42.436;18.514;2022-07-29T12:25:54;7.80;;;6.90;;
58272;SDS011;44075;42.436;18.514;2022-07-29T12:28:21;9.35;;;7.43;;
58272;SDS011;44075;42.436;18.514;2022-07-29T12:30:48;8.93;;;7.70;;
58272;SDS011;44075;42.436;18.514;2022-07-29T12:35:41;9.45;;;7.65;;
58272;SDS011;44075;42.436;18.514;2022-07-29T12:38:09;8.27;;;7.38;;
58272;SDS011;44075;42.436;18.514;2022-07-29T12:40:35;9.70;;;7.05;;
58272;SDS011;44075;42.436;18.514;2022-07-29T12:43:05;10.32;;;8.02;;
58272;SDS011;44075;42.436;18.514;2022-07-29T12:45:35;9.38;;;7.63;;
58272;SDS011;44075;42.436;18.514;2022-07-29T12:48:01;9.82;;;7.47;;
58272;SDS011;44075;42.436;18.514;2022-07-29T12:50:27;9.25;;;7.40;;
58272;SDS011;44075;42.436;18.514;2022-07-29T12:52:53;8.93;;;6.93;;
58272;SDS011;44075;42.436;18.514;2022-07-29T12:55:39;9.15;;;7.30;;
58272;SDS011;44075;42.436;18.514;2022-07-29T12:58:05;8.32;;;7.40;;
58272;SDS011;44075;42.436;18.514;2022-07-29T13:00:32;8.82;;;7.15;;
58272;SDS011;44075;42.436;18.514;2022-07-29T13:02:58;8.70;;;7.15;;
58272;SDS011;44075;42.436;18.514;2022-07-29T13:05:39;8.80;;;6.90;;
58272;SDS011;44075;42.436;18.514;2022-07-29T13:08:12;10.13;;;7.55;;
58272;SDS011;44075;42.436;18.514;2022-07-29T13:10:39;9.82;;;8.50;;
58272;SDS011;44075;42.436;18.514;2022-07-29T13:13:06;9.38;;;6.90;;
58272;SDS011;44075;42.436;18.514;2022-07-29T13:15:34;9.07;;;7.13;;
58272;SDS011;44075;42.436;18.514;2022-07-29T13:18:00;8.18;;;6.90;;
58272;SDS011;44075;42.436;18.514;2022-07-29T13:20:27;8.18;;;6.45;;
58272;SDS011;44075;42.436;18.514;2022-07-29T13:22:58;8.93;;;6.90;;
58272;SDS011;44075;42.436;18.514;2022-07-29T13:25:25;8.90;;;7.15;;
58272;SDS011;44075;42.436;18.514;2022-07-29T13:27:52;15.05;;;8.38;;
58272;SDS011;44075;42.436;18.514;2022-07-29T13:30:19;9.20;;;6.75;;
58272;SDS011;44075;42.436;18.514;2022-07-29T13:32:46;9.13;;;7.35;;
58272;SDS011;44075;42.436;18.514;2022-07-29T13:35:12;8.45;;;6.97;;
58272;SDS011;44075;42.436;18.514;2022-07-29T13:37:39;8.90;;;6.60;;
58272;SDS011;44075;42.436;18.514;2022-07-29T13:40:06;9.65;;;7.32;;
58272;SDS011;44075;42.436;18.514;2022-07-29T13:42:32;8.02;;;6.43;;
58272;SDS011;44075;42.436;18.514;2022-07-29T13:44:59;9.52;;;7.30;;
58272;SDS011;44075;42.436;18.514;2022-07-29T13:47:25;16.58;;;7.78;;
58272;SDS011;44075;42.436;18.514;2022-07-29T13:49:51;8.60;;;6.90;;
58272;SDS011;44075;42.436;18.514;2022-07-29T13:52:20;9.63;;;7.18;;
58272;SDS011;44075;42.436;18.514;2022-07-29T13:54:47;9.77;;;7.05;;
58272;SDS011;44075;42.436;18.514;2022-07-29T13:57:13;8.77;;;7.35;;
58272;SDS011;44075;42.436;18.514;2022-07-29T13:59:42;9.23;;;7.10;;
58272;SDS011;44075;42.436;18.514;2022-07-29T14:02:09;10.65;;;7.70;;
58272;SDS011;44075;42.436;18.514;2022-07-29T14:04:35;10.23;;;7.43;;
58272;SDS011;44075;42.436;18.514;2022-07-29T14:07:01;8.80;;;7.63;;
58272;SDS011;44075;42.436;18.514;2022-07-29T14:09:27;9.20;;;6.18;;
58272;SDS011;44075;42.436;18.514;2022-07-29T14:11:53;8.25;;;6.78;;
58272;SDS011;44075;42.436;18.514;2022-07-29T14:14:20;8.75;;;6.85;;
58272;SDS011;44075;42.436;18.514;2022-07-29T14:16:46;7.85;;;6.80;;
58272;SDS011;44075;42.436;18.514;2022-07-29T14:19:12;8.63;;;6.57;;
58272;SDS011;44075;42.436;18.514;2022-07-29T14:21:38;8.77;;;6.90;;
58272;SDS011;44075;42.436;18.514;2022-07-29T14:24:08;8.10;;;6.72;;
58272;SDS011;44075;42.436;18.514;2022-07-29T14:26:34;7.00;;;5.88;;
58272;SDS011;44075;42.436;18.514;2022-07-29T14:29:00;8.18;;;6.72;;
58272;SDS011;44075;42.436;18.514;2022-07-29T14:31:26;7.47;;;6.68;;
58272;SDS011;44075;42.436;18.514;2022-07-29T14:33:52;7.70;;;6.30;;
58272;SDS011;44075;42.436;18.514;2022-07-29T14:36:18;7.88;;;6.15;;
58272;SDS011;44075;42.436;18.514;2022-07-29T14:38:47;9.18;;;6.50;;
58272;SDS011;44075;42.436;18.514;2022-07-29T14:41:17;7.47;;;6.30;;
58272;SDS011;44075;42.436;18.514;2022-07-29T14:43:43;8.15;;;6.55;;
58272;SDS011;44075;42.436;18.514;2022-07-29T14:46:09;7.47;;;5.97;;
58272;SDS011;44075;42.436;18.514;2022-07-29T14:48:38;8.00;;;6.32;;
58272;SDS011;44075;42.436;18.514;2022-07-29T14:51:04;8.40;;;6.20;;
58272;SDS011;44075;42.436;18.514;2022-07-29T14:53:32;7.25;;;5.50;;
58272;SDS011;44075;42.436;18.514;2022-07-29T14:56:04;9.63;;;6.28;;
58272;SDS011;44075;42.436;18.514;2022-07-29T14:58:30;8.35;;;5.85;;
58272;SDS011;44075;42.436;18.514;2022-07-29T15:00:56;7.85;;;6.10;;
58272;SDS011;44075;42.436;18.514;2022-07-29T15:03:25;8.77;;;6.45;;
58272;SDS011;44075;42.436;18.514;2022-07-29T15:05:52;8.07;;;6.38;;
58272;SDS011;44075;42.436;18.514;2022-07-29T15:08:18;7.85;;;6.53;;
58272;SDS011;44075;42.436;18.514;2022-07-29T15:10:45;9.00;;;6.43;;
58272;SDS011;44075;42.436;18.514;2022-07-29T15:13:11;7.45;;;5.97;;
58272;SDS011;44075;42.436;18.514;2022-07-29T15:15:37;8.73;;;6.18;;
58272;SDS011;44075;42.436;18.514;2022-07-29T15:18:03;10.07;;;6.70;;
58272;SDS011;44075;42.436;18.514;2022-07-29T15:20:29;8.85;;;6.50;;
58272;SDS011;44075;42.436;18.514;2022-07-29T15:22:56;8.65;;;6.25;;
58272;SDS011;44075;42.436;18.514;2022-07-29T15:25:22;8.63;;;6.80;;
58272;SDS011;44075;42.436;18.514;2022-07-29T15:27:48;7.72;;;6.50;;
58272;SDS011;44075;42.436;18.514;2022-07-29T15:30:14;8.07;;;6.55;;
58272;SDS011;44075;42.436;18.514;2022-07-29T15:32:43;7.95;;;6.93;;
58272;SDS011;44075;42.436;18.514;2022-07-29T15:35:10;8.90;;;6.22;;